AirNav   Pilot Hours Calculator
 
 718 users online  

31FL Forever Florida Airport
Melbourne, Florida, USA

GOING TO MELBOURNE?


FAA INFORMATION EFFECTIVE 05 DECEMBER 2019

Location

FAA Identifier: 31FL
Lat/Long: 28-02-36.0690N 081-01-09.2270W
28-02.601150N 081-01.153783W
28.0433525,-81.0192297
(estimated)
Elevation: 54 ft. / 16 m (estimated)
Variation: 03W (1985)
From city: 22 miles W of MELBOURNE, FL
Time zone: UTC -5 (UTC -4 during Daylight Saving Time)
Zip code: 34773

Airport Operations

Airport use: Private use. Permission required prior to landing
Activation date: 06/1981
Control tower: no
ARTCC: JACKSONVILLE CENTER
FSS: SAINT PETERSBURG FLIGHT SERVICE STATION
Attendance: UNATNDD
Wind indicator: yes
Segmented circle: no

Nearby radio navigation aids

VOR radial/distance  VOR name  Freq  Var
MLBr267/20.7MELBOURNE VOR/DME110.0007W
ORLr151/34.3ORLANDO VORTAC112.2000E
TRVr315/35.6TREASURE VORTAC117.3007W

Airport Services

Runway Information

Runway 9/27

Dimensions: 3000 x 150 ft. / 914 x 46 m
Surface: turf
RUNWAY 9  RUNWAY 27
Traffic pattern: leftleft

Airport Ownership and Management from official FAA records

Ownership: Privately-owned
Owner: ALLEN BROUSARD CONSERVANCY INC
4755 N. KENANVILLE RD
ST CLOUD, FL 34773
Phone (407) 892-5010
Manager: CYNTHIA DAVIS
4755 N. KENANVILLE RD
ST CLOUD, FL 34773
Phone (407) 892-5010

Additional Remarks

FOR CD CTC ORLANDO APCH AT 407-852-7553.

Instrument Procedures

There are no published instrument procedures at 31FL.

Some nearby airports with instrument procedures:

KMLB - Melbourne International Airport (20 nm E)
KCOF - Patrick Air Force Base (25 nm NE)
KCOI - Merritt Island Airport (25 nm NE)
KISM - Kissimmee Gateway Airport (27 nm NW)
KMCO - Orlando International Airport (28 nm NW)
 
Loc | Ops | Rwys | IFR | FBO | Links
Com | Nav | Svcs | Stats | Notes

Reliance Aviation
AirBoss

 
Area around 31FL (Forever Florida Airport)
 
Road maps at: MapQuest Bing Google
 
Aerial photo
WARNING: Photo may not be current or correct
Aerial photo of 31FL (Forever Florida Airport)
Photo courtesy of Skylar Schoemig

Do you have a better or more recent aerial photo of Forever Florida Airport that you would like to share? If so, please send us your photo.

 
Sectional chart

 
Airport distance calculator
Flying to Forever Florida Airport? Find the distance to fly.

From to 31FL

Sunrise and sunset
Times for 15-Dec-2019
 Local
(UTC-5)
 Zulu
(UTC)
Morning civil twilight06:4311:43
Sunrise07:0912:09
Sunset17:2922:29
Evening civil twilight17:5522:55

Current date and time
Zulu (UTC)  16-Dec-2019 01:32:20
Local (UTC-5)  15-Dec-2019 20:32:20
 
METAR
KMLB 
20nm E 
160053Z 00000KT 10SM CLR 17/16 A3017 RMK AO2 SLP217 T01720156
KCOF 
25nm NE 
160056Z AUTO 10006KT 10SM CLR 22/17 A3017 RMK AO2 SLP221 T02200169 $
KISM 
26nm NW 
160056Z 08006KT 10SM CLR 18/16 A3019 RMK AO2 SLP222 T01780156 PNO $
KMCO 
28nm NW 
160053Z VRB05KT 10SM CLR 18/14 A3018 RMK AO2 SLP219 T01780139
KTIX 
31nm NE 
160047Z 00000KT 7SM CLR 17/16 A3018
KX07 
33nm W 
160055Z AUTO 08007KT 10SM CLR 18/16 A3018 RMK A01
KORL 
35nm NW 
160053Z 07005KT 10SM CLR 17/14 A3018 RMK AO2 SLP223 T01720144
KXMR 
36nm NE 
160056Z AUTO 11004KT 10SM CLR 17/16 A3016 RMK AO2 SLP216 T01730155 $
KTTS 
38nm NE 
160056Z AUTO 00000KT 10SM CLR 15/14 A3017 RMK AO2 SLP221 T01500142 FZRANO $
KGIF 
39nm W 
160053Z AUTO 09008KT 10SM CLR 19/15 A3018 RMK AO2 SLP217 T01940150
TAF
KMLB 
20nm E 
151721Z 1518/1618 07008KT P6SM SKC FM160000 10006KT P6SM SKC FM161400 13009KT P6SM SCT030
NOTAMs
Click for the latest NOTAMs
NOTAMs are issued by the DoD/FAA and will open in a separate window not controlled by AirNav.

 

 
 

Would you like to see your business listed on this page?

 If your business provides an interesting product or service to pilots, flight crews, aircraft, or users of the Forever Florida Airport, you should consider listing it here.  To start the listing process, click on the button below
 
Add a business
 

Other Pages about Forever Florida Airport

Update a link
 
Copyright © AirNav, LLC. All rights reserved. Privacy Policy  Contact